CYDF

Deer Lake Airport

Deer Lake, Canada
METAR CYDF 192131Z 24006KT 12SM -SN FEW025 BKN032 OVC065 M02/M05 A3009 RMK SC2SC3SC3 SLP193
Observed Flight Rules
Nov-19 @ 21:31 UTC (37 minutes ago) Visual Flight Rules
Wind Visibility Clouds Conditions
240° at 6 knots 12 miles
  • Few at 2,500' AGL
  • Broken at 3,200' AGL
  • Overcast at 6,500' AGL
  • Light Snow
Temperatures Readings
Current -2°C / 28°F
Dewpoint -5°C / 23°F
Humidity 80%
Altimeter 30.09" Hg
Pressure 1019.3 hPa
Elevation 22
METAR CYDF 192131Z 24006KT 12SM -SN FEW025 BKN032 OVC065 M02/M05 A3009 RMK SC2SC3SC3 SLP193
Observed Flight Rules
Nov-19 @ 21:31 UTC
(37 minutes ago)
VFR
Wind Visibility
240° at 6 knots 12 miles
Clouds
  • Few at 2,500' AGL
  • Broken at 3,200' AGL
  • Overcast at 6,500' AGL
Conditions
  • Light Snow
Temperature Dewpoint
-2°C / 28°F -5°C / 23°F
Humidity Altimeter Pressure
80% 30.09" Hg 1019.3 hPa